Terminal Aerodrome Forecast
Issued by NWS

Home | Current Version | Previous Version | Text Only | Print | Product List | Glossary On
Versions: 1 2 3 4 5 6 7 8 9 10 11 12 13 14 15 16 17
000
FTUS43 KICT 012300
TAFSLN
TAF
KSLN 012320Z 0200/0224 05005KT P6SM BKN030
     FM020300 06005KT P6SM SCT035
     FM020900 VRB04KT P6SM SCT150
      TEMPO 0210/0213 4SM BR BKN005
     FM021600 08006KT P6SM SCT050=

USA.gov is the U.S. government's official web portal to all federal, state and local government web resources and services.